Flight Track Log - Related Links

Times and Time Zones

All times are in EDT time to prevent confusion due to time zone crossing. See the TAM3766 flight status page for this flight to view local times or setup timezone preferences in your user account.

Time Position Orientation Groundspeed Altitude Reporting Facility
EDT Latitude Longitude Course Direction KTS MPH feet Rate Location/Type
Thu 11:45:17 AM -22.7740 -43.1830 45° Northeast 217 250 1,200  Level FlightAware ADS-B
Thu 11:45:32 AM -22.7480 -43.1650 33° Northeast 247 284 1,900 2,400 Climbing FlightAware ADS-B
Thu 11:45:42 AM -22.7420 -43.1610 32° Northeast 247 284 2,200 2,640 Climbing FlightAware ADS-B
Thu 11:45:57 AM -22.7260 -43.1500 32° Northeast 251 289 3,000 3,000 Climbing FlightAware ADS-B
Thu 11:46:12 AM -22.7170 -43.1310 63° Northeast 264 304 3,700 2,250 Climbing FlightAware ADS-B
Thu 11:46:37 AM -22.7150 -43.0970 86° East 289 333 4,500 2,618 Climbing FlightAware ADS-B
Thu 11:47:07 AM -22.7160 -43.0540 91° East 286 329 6,100 3,200 Climbing FlightAware ADS-B
Thu 11:47:22 AM -22.7170 -43.0310 93° East 287 330 6,900 3,000 Climbing FlightAware ADS-B
Thu 11:47:47 AM -22.7170 -42.9960 90° East 291 335 8,100 2,800 Climbing FlightAware ADS-B
Thu 11:48:07 AM -22.7100 -42.9680 75° East 298 343 9,000 2,743 Climbing FlightAware ADS-B
Thu 11:48:22 AM -22.6950 -42.9510 46° Northeast 301 346 9,700 2,600 Climbing FlightAware ADS-B
Thu 11:48:37 AM -22.6760 -42.9450 16° North 307 353 10,300 2,250 Climbing FlightAware ADS-B
Thu 11:49:02 AM -22.6400 -42.9560 344° North 318 366 11,200 1,714 Climbing FlightAware ADS-B
Thu 11:49:47 AM -22.5820 -42.9900 332° Northwest 346 398 12,300 1,500 Climbing FlightAware ADS-B
Thu 11:50:22 AM -22.5270 -43.0210 332° Northwest 366 421 13,200 1,800 Climbing FlightAware ADS-B
Thu 11:51:07 AM -22.4630 -43.0610 330° Northwest 369 425 14,700 2,133 Climbing FlightAware ADS-B
Thu 11:51:52 AM -22.3950 -43.1040 330° Northwest 370 426 16,400 1,906 Climbing FlightAware ADS-B
Thu 11:52:32 AM -22.3340 -43.1420 330° Northwest 382 440 17,400 1,575 Climbing FlightAware ADS-B
Thu 11:53:12 AM -22.2720 -43.1800 330° Northwest 388 447 18,500 1,694 Climbing FlightAware ADS-B
Thu 11:53:57 AM -22.2030 -43.2230 330° Northwest 392 451 19,800 1,461 Climbing FlightAware ADS-B
Thu 11:55:07 AM -22.1090 -43.2810 330° Northwest 396 456 21,300 1,150 Climbing FlightAware ADS-B
Thu 11:55:57 AM -22.0260 -43.3320 330° Northwest 396 456 22,100 480 Climbing FlightAware ADS-B
Thu 11:56:47 AM -21.9590 -43.3740 330° Northwest 396 456 22,100  Level FlightAware ADS-B
Thu 11:57:27 AM -21.9050 -43.4080 330° Northwest 396 456 22,100  Level FlightAware ADS-B
Thu 11:58:07 AM -21.8510 -43.4410 330° Northwest 396 456 22,100  Level FlightAware ADS-B
Thu 11:58:47 AM -21.7970 -43.4750 330° Northwest 396 456 22,100  Level FlightAware ADS-B
Thu 11:59:27 AM -21.7430 -43.5080 330° Northwest 396 456 22,100 3,240 Level FlightAware ADS-B
Thu 12:00:27 PM -21.5580 -43.6200 331° Northwest 439 505 27,500 3,663 Climbing FlightAware ADS-B
Thu 12:01:02 PM -21.5030 -43.6530 331° Northwest 441 507 27,900 800 Climbing FlightAware ADS-B
Thu 12:01:57 PM -21.3880 -43.7240 330° Northwest 454 522 28,700 776 Climbing FlightAware ADS-B
Thu 12:02:27 PM -21.3320 -43.7580 331° Northwest 460 529 29,000 442 Climbing FlightAware ADS-B
Thu 12:03:32 PM -21.2310 -43.8200 330° Northwest 460 529 29,400 629 Climbing FlightAware ADS-B
Thu 12:04:12 PM -21.1350 -43.8770 331° Northwest 476 548 30,100 975 Climbing FlightAware ADS-B
Thu 12:04:52 PM -21.0570 -43.9250 330° Northwest 477 549 30,700 1,129 Climbing FlightAware ADS-B
Thu 12:05:37 PM -20.9710 -43.9770 331° Northwest 471 542 31,700 1,200 Climbing FlightAware ADS-B
Thu 12:06:17 PM -20.8950 -44.0230 331° Northwest 467 537 32,400 1,271 Climbing FlightAware ADS-B
Thu 12:07:02 PM -20.8110 -44.0740 330° Northwest 458 527 33,500 1,271 Climbing FlightAware ADS-B
Thu 12:07:42 PM -20.7520 -44.1090 331° Northwest 452 520 34,200 975 Climbing FlightAware ADS-B
Thu 12:08:22 PM -20.6790 -44.1530 331° Northwest 448 516 34,800 706 Climbing FlightAware ADS-B
Thu 12:09:07 PM -20.5970 -44.2030 330° Northwest 452 520 35,200 667 Climbing FlightAware ADS-B
Thu 12:09:52 PM -20.5150 -44.2520 331° Northwest 449 517 35,800 600 Climbing FlightAware ADS-B
Thu 12:10:27 PM -20.4550 -44.2900 329° Northwest 447 514 36,000 150 Climbing FlightAware ADS-B
Thu 12:11:12 PM -20.3640 -44.3490 329° Northwest 454 522 36,000  Level FlightAware ADS-B
Thu 12:11:37 PM -20.3180 -44.3790 329° Northwest 459 528 36,000  Level FlightAware ADS-B
Thu 12:12:17 PM -20.2450 -44.4250 329° Northwest 459 528 36,000 71 Level FlightAware ADS-B
Thu 12:13:02 PM -20.1690 -44.4740 329° Northwest 458 527 36,100 71 Climbing FlightAware ADS-B
Thu 12:13:42 PM -20.0910 -44.5250 328° Northwest 457 526 36,100 -71 Level FlightAware ADS-B
Thu 12:14:27 PM -20.0090 -44.5770 329° Northwest 455 524 36,000 -71 Descending FlightAware ADS-B
Thu 12:15:07 PM -19.9380 -44.6230 329° Northwest 456 525 36,000  Level FlightAware ADS-B
Thu 12:15:47 PM -19.8650 -44.6690 329° Northwest 458 527 36,000  Level FlightAware ADS-B
Thu 12:16:32 PM -19.7840 -44.7210 329° Northwest 460 529 36,000 71 Level FlightAware ADS-B
Thu 12:17:12 PM -19.7100 -44.7680 329° Northwest 458 527 36,100  Climbing FlightAware ADS-B
Thu 12:17:57 PM -19.6290 -44.8190 329° Northwest 458 527 36,000 -71 Descending FlightAware ADS-B
Thu 12:18:37 PM -19.5530 -44.8680 329° Northwest 457 526 36,000  Level FlightAware ADS-B
Thu 12:19:17 PM -19.4780 -44.9160 329° Northwest 457 526 36,000  Level FlightAware ADS-B
Thu 12:20:02 PM -19.3980 -44.9670 329° Northwest 458 527 36,000  Level FlightAware ADS-B
Thu 12:20:42 PM -19.3240 -45.0140 329° Northwest 458 527 36,000  Level FlightAware ADS-B
Thu 12:21:22 PM -19.2520 -45.0600 329° Northwest 458 527 36,000  Level FlightAware ADS-B
Thu 12:22:07 PM -19.1690 -45.1120 329° Northwest 459 528 36,000  Level FlightAware ADS-B
Thu 12:22:47 PM -19.0970 -45.1580 329° Northwest 460 529 36,000  Level FlightAware ADS-B
Thu 12:23:32 PM -19.0140 -45.2100 329° Northwest 461 531 36,000  Level FlightAware ADS-B
Thu 12:24:12 PM -18.9410 -45.2560 329° Northwest 462 532 36,000  Level FlightAware ADS-B
Thu 12:24:52 PM -18.8660 -45.3030 329° Northwest 463 533 36,000 71 Level FlightAware ADS-B
Thu 12:25:37 PM -18.7870 -45.3530 329° Northwest 465 535 36,100  Climbing FlightAware ADS-B
Thu 12:26:17 PM -18.7120 -45.4000 329° Northwest 466 536 36,000 -71 Descending FlightAware ADS-B
Thu 12:27:02 PM -18.6300 -45.4510 329° Northwest 473 544 36,000  Level FlightAware ADS-B
Thu 12:27:42 PM -18.5530 -45.5000 329° Northwest 476 548 36,000 71 Level FlightAware ADS-B
Thu 12:28:27 PM -18.4660 -45.5530 330° Northwest 477 549 36,100 71 Climbing FlightAware ADS-B
Thu 12:29:07 PM -18.3900 -45.6010 329° Northwest 477 549 36,100 -75 Level FlightAware ADS-B
Thu 12:29:47 PM -18.3150 -45.6490 329° Northwest 477 549 36,000 -71 Descending FlightAware ADS-B
Thu 12:30:32 PM -18.2300 -45.7030 329° Northwest 478 550 36,000  Level FlightAware ADS-B
Thu 12:31:12 PM -18.1550 -45.7490 330° Northwest 479 551 36,000  Level FlightAware ADS-B
Thu 12:31:52 PM -18.0760 -45.7990 329° Northwest 480 552 36,000  Level FlightAware ADS-B
Thu 12:32:37 PM -17.9950 -45.8500 329° Northwest 484 557 36,000  Level FlightAware ADS-B
Thu 12:33:17 PM -17.9180 -45.8970 330° Northwest 485 558 36,000 71 Level FlightAware ADS-B
Thu 12:34:02 PM -17.8270 -45.9540 329° Northwest 485 558 36,100  Climbing FlightAware ADS-B
Thu 12:34:42 PM -17.7500 -46.0010 330° Northwest 485 558 36,000 -75 Descending FlightAware ADS-B
Thu 12:35:22 PM -17.6760 -46.0460 330° Northwest 485 558 36,000  Level FlightAware ADS-B
Thu 12:36:07 PM -17.5860 -46.1020 329° Northwest 485 558 36,000  Level FlightAware ADS-B
Thu 12:36:47 PM -17.5070 -46.1500 330° Northwest 485 558 36,000  Level FlightAware ADS-B
Thu 12:37:32 PM -17.4210 -46.2030 330° Northwest 484 557 36,000  Level FlightAware ADS-B
Thu 12:38:12 PM -17.3510 -46.2460 330° Northwest 484 557 36,000 71 Level FlightAware ADS-B
Thu 12:38:57 PM -17.2640 -46.3000 329° Northwest 481 554 36,100 71 Climbing FlightAware ADS-B
Thu 12:39:37 PM -17.1800 -46.3520 329° Northwest 477 549 36,100 -67 Level FlightAware ADS-B
Thu 12:40:27 PM -17.0840 -46.4110 330° Northwest 476 548 36,000 -60 Descending FlightAware ADS-B
Thu 12:41:17 PM -16.9930 -46.4680 329° Northwest 475 547 36,000  Level FlightAware ADS-B
Thu 12:41:57 PM -16.9290 -46.5080 329° Northwest 475 547 36,000  Level FlightAware ADS-B
Thu 12:42:37 PM -16.8650 -46.5480 329° Northwest 475 547 36,000  Level FlightAware ADS-B
Thu 12:43:17 PM -16.8010 -46.5880 329° Northwest 475 547 36,000  Level FlightAware ADS-B
Thu 12:43:57 PM -16.7370 -46.6280 329° Northwest 475 547 36,000  Level FlightAware ADS-B
Thu 12:44:47 PM -16.6570 -46.6790 329° Northwest 475 547 36,000  Level FlightAware ADS-B
Thu 12:45:27 PM -16.5930 -46.7190 329° Northwest 475 547 36,000  Level FlightAware ADS-B
Thu 12:46:07 PM -16.5290 -46.7590 329° Northwest 475 547 36,000  Level FlightAware ADS-B
Thu 12:46:47 PM -16.4650 -46.7990 329° Northwest 475 547 36,000  Level FlightAware ADS-B
Thu 12:47:27 PM -16.4010 -46.8390 329° Northwest 475 547 36,000  Level FlightAware ADS-B
Thu 12:48:07 PM -16.3370 -46.8790 329° Northwest 475 547 36,000  Level FlightAware ADS-B
Thu 12:48:57 PM -16.1020 -47.0150 331° Northwest 483 556 36,000  Level FlightAware ADS-B
Thu 12:49:52 PM -15.9930 -47.0820 329° Northwest 482 555 36,000 60 Level FlightAware ADS-B
Thu 12:50:37 PM -15.9100 -47.1330 329° Northwest 481 554 36,100  Climbing FlightAware ADS-B
Thu 12:51:17 PM -15.8290 -47.1830 329° Northwest 481 554 36,000 -75 Descending FlightAware ADS-B
Thu 12:51:57 PM -15.7530 -47.2280 330° Northwest 482 555 36,000  Level FlightAware ADS-B
Thu 12:52:42 PM -15.6660 -47.2810 330° Northwest 485 558 36,000  Level FlightAware ADS-B
Thu 12:53:37 PM -15.5730 -47.3380 329° Northwest 485 558 36,000  Level FlightAware ADS-B
Thu 12:54:12 PM -15.4960 -47.3940 325° Northwest 483 556 36,000  Level FlightAware ADS-B
Thu 12:55:02 PM -15.4080 -47.4620 323° Northwest 483 556 36,000  Level FlightAware ADS-B
Thu 12:55:37 PM -15.3500 -47.5070 323° Northwest 484 557 36,000  Level FlightAware ADS-B
Thu 12:56:37 PM -15.2450 -47.5880 323° Northwest 484 557 36,000 57 Level FlightAware ADS-B
Thu 12:57:22 PM -15.1540 -47.6580 323° Northwest 485 558 36,100 71 Climbing FlightAware ADS-B
Thu 12:58:02 PM -15.0800 -47.7150 323° Northwest 483 556 36,100 -71 Level FlightAware ADS-B
Thu 12:58:47 PM -15.0000 -47.7760 324° Northwest 482 555 36,000 -71 Descending FlightAware ADS-B
Thu 12:59:27 PM -14.9350 -47.8260 323° Northwest 480 552 36,000  Level FlightAware ADS-B
Thu 01:00:37 PM -14.8130 -47.9200 323° Northwest 478 550 36,000  Level FlightAware ADS-B
Thu 01:01:17 PM -14.7530 -47.9670 323° Northwest 478 550 36,000  Level FlightAware ADS-B
Thu 01:02:42 PM -14.5910 -48.0910 323° Northwest 479 551 36,000  Level FlightAware ADS-B
Thu 01:03:27 PM -14.5160 -48.1650 316° Northwest 475 547 36,000 60 Level FlightAware ADS-B
Thu 01:04:22 PM -14.4370 -48.2480 314° West 475 547 36,100 55 Climbing FlightAware ADS-B
Thu 01:05:17 PM -14.3440 -48.3410 316° Northwest 471 542 36,100 -48 Level FlightAware ADS-B
Thu 01:06:27 PM -14.2380 -48.4490 315° West 468 539 36,000 -55 Descending FlightAware ADS-B
Thu 01:07:07 PM -14.1730 -48.5160 315° West 468 539 36,000  Level FlightAware ADS-B
Thu 01:07:52 PM -14.1090 -48.5810 315° West 469 540 36,000  Level FlightAware ADS-B
Thu 01:08:32 PM -14.0520 -48.6400 315° West 469 540 36,000  Level FlightAware ADS-B
Thu 01:09:12 PM -14.0000 -48.6940 315° West 469 540 36,000  Level FlightAware ADS-B
Thu 01:09:52 PM -13.9470 -48.7480 315° West 469 540 36,000 75 Level FlightAware ADS-B
Thu 01:10:32 PM -13.8520 -48.8440 316° Northwest 473 544 36,100 67 Climbing FlightAware ADS-B
Thu 01:11:22 PM -13.7820 -48.9150 315° West 473 544 36,100  Level FlightAware ADS-B
Thu 01:12:02 PM -13.7300 -48.9690 315° West 473 544 36,100 -75 Level FlightAware ADS-B
Thu 01:12:42 PM -13.6500 -49.0490 316° Northwest 475 547 36,000 -71 Descending FlightAware ADS-B
Thu 01:13:27 PM -13.5820 -49.1180 315° West 477 549 36,000  Level FlightAware ADS-B
Thu 01:14:12 PM -13.5230 -49.1790 315° West 477 549 36,000  Level FlightAware ADS-B
Thu 01:14:52 PM -13.4700 -49.2340 315° West 477 549 36,000  Level FlightAware ADS-B
Thu 01:15:32 PM -13.4170 -49.2880 315° West 477 549 36,000  Level FlightAware ADS-B
Thu 01:16:12 PM -13.3630 -49.3430 315° West 477 549 36,000  Level FlightAware ADS-B
Thu 01:16:52 PM -13.3100 -49.3970 315° West 477 549 36,000  Level FlightAware ADS-B
Thu 01:17:32 PM -13.2570 -49.4520 315° West 477 549 36,000  Level FlightAware ADS-B
Thu 01:18:12 PM -13.1310 -49.5760 316° Northwest 36,000  Level FlightAware ADS-B
Thu 01:20:00 PM -12.9809 -49.7391 313° West  Level Estimated
Thu 01:21:00 PM -12.8974 -49.8296 313° West  Level Estimated
Thu 01:22:00 PM -12.8140 -49.9200 313° West  Level Estimated
Thu 01:23:00 PM -12.7305 -50.0104 313° West  Level Estimated
Thu 01:24:00 PM -12.6469 -50.1007 313° West  Level Estimated
Thu 01:25:00 PM -12.5633 -50.1909 313° West  Level Estimated
Thu 01:26:00 PM -12.4797 -50.2812 314° West  Level Estimated
Thu 01:27:00 PM -12.3961 -50.3713 314° West  Level Estimated
Thu 01:28:00 PM -12.3125 -50.4614 314° West  Level Estimated
Thu 01:28:47 PM -12.1350 -50.5790 314° West 484 557 36,000  Level FlightAware ADS-B
Thu 01:29:32 PM -12.0640 -50.6510 315° West 484 557 36,000  Level FlightAware ADS-B
Thu 01:30:17 PM -11.9880 -50.7260 316° Northwest 486 559 36,000  Level FlightAware ADS-B
Thu 01:30:57 PM -11.9250 -50.7890 316° Northwest 486 559 36,000  Level FlightAware ADS-B
Thu 01:31:32 PM -11.8700 -50.8440 316° Northwest 486 559 36,000  Level FlightAware ADS-B
Thu 01:32:17 PM -11.7990 -50.9150 316° Northwest 486 559 36,000  Level FlightAware ADS-B
Thu 01:33:02 PM -11.7340 -50.9810 315° West 486 559 36,000  Level FlightAware ADS-B
Thu 01:33:57 PM -11.6350 -51.0770 316° Northwest 487 560 36,000  Level FlightAware ADS-B
Thu 01:34:37 PM -11.5720 -51.1410 315° West 487 560 36,000  Level FlightAware ADS-B
Thu 01:35:17 PM -11.5180 -51.1960 315° West 487 560 36,000  Level FlightAware ADS-B
Thu 01:36:02 PM -11.4300 -51.2810 317° Northwest 489 563 36,000  Level FlightAware ADS-B
Thu 01:36:47 PM -11.3660 -51.3460 315° West 489 563 36,000  Level FlightAware ADS-B
Thu 01:37:42 PM -11.3950 -51.3170 136° Southeast 489 563 36,000  Level FlightAware ADS-B
Thu 01:39:07 PM -11.1340 -51.5730 316° Northwest 485 558 36,000  Level FlightAware ADS-B
Thu 01:39:47 PM -11.0740 -51.6340 315° West 485 558 36,000  Level FlightAware ADS-B
Thu 01:40:27 PM -11.0200 -51.6890 315° West 485 558 36,000  Level FlightAware ADS-B
Thu 01:41:07 PM -10.9660 -51.7440 315° West 485 558 36,000  Level FlightAware ADS-B
Thu 01:41:47 PM -10.9120 -51.7990 315° West 485 558 36,000  Level FlightAware ADS-B
Thu 01:42:37 PM -10.8450 -51.8670 315° West 485 558 36,000  Level FlightAware ADS-B
Thu 01:43:17 PM -10.7910 -51.9220 315° West 485 558 36,000  Level FlightAware ADS-B
Thu 01:43:57 PM -10.7370 -51.9770 315° West 485 558 36,000  Level FlightAware ADS-B
Thu 01:44:37 PM -10.6830 -52.0320 315° West 485 558 36,000  Level FlightAware ADS-B
Thu 01:45:27 PM -10.6160 -52.1010 315° West 485 558 36,000  Level FlightAware ADS-B
Thu 01:46:07 PM -10.5620 -52.1560 315° West 485 558 36,000  Level FlightAware ADS-B
Thu 01:46:47 PM -10.5080 -52.2100 315° West 485 558 36,000  Level FlightAware ADS-B
Thu 01:47:27 PM -10.4540 -52.2650 315° West 485 558 36,000  Level FlightAware ADS-B
Thu 01:48:07 PM -10.4000 -52.3200 315° West 485 558 36,000  Level FlightAware ADS-B
Thu 01:48:47 PM -10.3460 -52.3750 315° West 485 558 36,000 -368 Level FlightAware ADS-B
Thu 01:51:00 PM -10.1614 -52.5741 313° West  Level Estimated
Thu 01:52:00 PM -10.0781 -52.6638 313° West  Level Estimated
Thu 01:53:00 PM -9.9948 -52.7535 313° West  Level Estimated
Thu 01:54:00 PM -9.9114 -52.8431 313° West  Level Estimated
Thu 01:55:00 PM -9.8281 -52.9327 313° West  Level Estimated
Thu 01:56:00 PM -9.7447 -53.0222 313° West  Level Estimated
Thu 01:57:00 PM -9.6612 -53.1117 313° West  Level Estimated
Thu 01:58:00 PM -9.5778 -53.2012 313° West  Level Estimated
Thu 01:59:00 PM -9.4943 -53.2906 313° West  Level Estimated
Thu 02:00:00 PM -9.4108 -53.3800 313° West  Level Estimated
Thu 02:01:00 PM -9.3273 -53.4693 313° West  Level Estimated
Thu 02:02:00 PM -9.2438 -53.5586 313° West  Level Estimated
Thu 02:03:00 PM -9.1602 -53.6478 313° West  Level Estimated
Thu 02:04:00 PM -9.0766 -53.7370 313° West  Level Estimated
Thu 02:05:00 PM -8.9930 -53.8261 314° West  Level Estimated
Thu 02:06:00 PM -8.9094 -53.9153 314° West  Level Estimated
Thu 02:07:00 PM -8.8257 -54.0043 314° West  Level Estimated
Thu 02:08:00 PM -8.7421 -54.0934 314° West  Level Estimated
Thu 02:09:00 PM -8.6584 -54.1824 314° West  Level Estimated
Thu 02:10:00 PM -8.5747 -54.2713 314° West  Level Estimated
Thu 02:11:00 PM -8.4909 -54.3602 314° West  Level Estimated
Thu 02:12:00 PM -8.4072 -54.4491 314° West  Level Estimated
Thu 02:13:00 PM -8.3234 -54.5379 314° West  Level Estimated
Thu 02:14:00 PM -8.2396 -54.6267 314° West  Level Estimated
Thu 02:15:00 PM -8.1558 -54.7155 314° West  Level Estimated
Thu 02:16:00 PM -8.0720 -54.8042 314° West  Level Estimated
Thu 02:17:00 PM -7.9881 -54.8929 314° West  Level Estimated
Thu 02:18:00 PM -7.9043 -54.9815 314° West  Level Estimated
Thu 02:19:00 PM -7.8204 -55.0701 314° West  Level Estimated
Thu 02:20:00 PM -7.7365 -55.1587 314° West  Level Estimated
Thu 02:21:00 PM -7.6526 -55.2473 314° West  Level Estimated
Thu 02:22:00 PM -7.5686 -55.3358 314° West  Level Estimated
Thu 02:23:00 PM -7.4847 -55.4243 314° West  Level Estimated
Thu 02:24:00 PM -7.4007 -55.5127 314° West  Level Estimated
Thu 02:25:00 PM -7.3167 -55.6011 314° West  Level Estimated
Thu 02:26:00 PM -7.2327 -55.6895 314° West  Level Estimated
Thu 02:27:00 PM -7.1487 -55.7778 314° West  Level Estimated
Thu 02:28:00 PM -7.0646 -55.8661 314° West  Level Estimated
Thu 02:29:00 PM -6.9806 -55.9544 314° West  Level Estimated
Thu 02:30:00 PM -6.8965 -56.0426 314° West  Level Estimated
Thu 02:31:00 PM -6.8124 -56.1309 314° West  Level Estimated
Thu 02:32:00 PM -6.7283 -56.2190 314° West  Level Estimated
Thu 02:33:00 PM -6.6442 -56.3072 314° West  Level Estimated
Thu 02:34:00 PM -6.5600 -56.3953 314° West  Level Estimated
Thu 02:35:00 PM -6.4759 -56.4834 314° West  Level Estimated
Thu 02:36:00 PM -6.3917 -56.5714 314° West  Level Estimated
Thu 02:37:00 PM -6.3075 -56.6595 314° West  Level Estimated
Thu 02:38:00 PM -6.2233 -56.7475 314° West  Level Estimated
Thu 02:39:00 PM -6.1391 -56.8355 314° West  Level Estimated
Thu 02:40:00 PM -6.0549 -56.9234 314° West  Level Estimated
Thu 02:41:00 PM -5.9706 -57.0113 314° West  Level Estimated
Thu 02:42:00 PM -5.8864 -57.0992 314° West  Level Estimated
Thu 02:43:00 PM -5.8021 -57.1871 314° West  Level Estimated
Thu 02:44:00 PM -5.7178 -57.2749 314° West  Level Estimated
Thu 02:45:00 PM -5.6335 -57.3627 314° West  Level Estimated
Thu 02:46:00 PM -5.5492 -57.4505 314° West  Level Estimated
Thu 02:47:00 PM -5.4649 -57.5383 314° West  Level Estimated
Thu 02:48:00 PM -5.3806 -57.6260 314° West  Level Estimated
Thu 02:49:00 PM -5.2962 -57.7137 314° West  Level Estimated
Thu 02:50:00 PM -5.2119 -57.8014 314° West  Level Estimated
Thu 02:51:00 PM -5.1275 -57.8891 314° West  Level Estimated
Thu 02:52:00 PM -5.0431 -57.9767 314° West  Level Estimated
Thu 02:53:00 PM -4.9587 -58.0644 314° West  Level Estimated
Thu 02:54:00 PM -4.8743 -58.1520 314° West  Level Estimated
Thu 02:55:00 PM -4.7899 -58.2396 314° West  Level Estimated
Thu 02:56:00 PM -4.7054 -58.3271 314° West  Level Estimated
Thu 02:57:00 PM -4.6210 -58.4146 314° West  Level Estimated
Thu 02:58:00 PM -4.5365 -58.5022 314° West  Level Estimated
Thu 02:59:00 PM -4.4521 -58.5896 314° West  Level Estimated
Thu 03:00:00 PM -4.3676 -58.6771 314° West  Level Estimated
Thu 03:01:00 PM -4.2831 -58.7646 314° West  Level Estimated
Thu 03:02:00 PM -4.1986 -58.8520 314° West  Level Estimated
Thu 03:03:00 PM -4.1141 -58.9394 314° West  Level Estimated
Thu 03:04:00 PM -4.0296 -59.0268 314° West  Level Estimated
Thu 03:05:00 PM -3.9451 -59.1142 314° West  Level Estimated
Thu 03:06:00 PM -3.8606 -59.2015 314° West  Level Estimated
Thu 03:07:00 PM -3.7760 -59.2889 314° West  Level Estimated
Thu 03:07:57 PM -3.3220 -59.7480 314° West 300 345 6,600  Level FlightAware ADS-B
Thu 03:08:00 PM -3.6915 -59.3762 314° West  Level Estimated
Thu 03:08:42 PM -3.2940 -59.8050 296° West 295 339 6,000  Level FlightAware ADS-B
Thu 03:09:07 PM -3.2790 -59.8380 294° West 292 336 5,700 -764 Descending FlightAware ADS-B
Thu 03:09:37 PM -3.2600 -59.8740 298° West 290 334 5,300 -800 Descending FlightAware ADS-B
Thu 03:09:52 PM -3.2520 -59.8910 295° West 290 334 5,100 -750 Descending FlightAware ADS-B
Thu 03:10:17 PM -3.2370 -59.9220 296° West 287 330 4,800 -764 Descending FlightAware ADS-B
Thu 03:10:47 PM -3.2190 -59.9580 297° West 288 331 4,400 -800 Descending FlightAware ADS-B
Thu 03:11:02 PM -3.2100 -59.9750 298° West 288 331 4,200 -750 Descending FlightAware ADS-B
Thu 03:11:27 PM -3.1950 -60.0050 297° West 287 330 3,900 -655 Descending FlightAware ADS-B
Thu 03:11:57 PM -3.1770 -60.0410 297° West 286 329 3,600 -500 Descending FlightAware ADS-B
Thu 03:12:27 PM -3.1590 -60.0770 297° West 280 322 3,400 -436 Descending FlightAware ADS-B
Thu 03:12:52 PM -3.1450 -60.1040 297° West 278 320 3,200 -545 Descending FlightAware ADS-B
Thu 03:13:22 PM -3.1280 -60.1390 296° West 262 302 2,900 -545 Descending FlightAware ADS-B
Thu 03:13:47 PM -3.1110 -60.1620 307° West 248 285 2,700 -545 Descending FlightAware ADS-B
Thu 03:14:17 PM -3.0860 -60.1850 317° Northwest 230 265 2,400 -667 Descending FlightAware ADS-B
Thu 03:14:32 PM -3.0720 -60.1890 344° North 219 252 2,200 -400 Descending FlightAware ADS-B
Thu 03:15:02 PM -3.0470 -60.1760 27° Northeast 193 222 2,100 -109 Descending FlightAware ADS-B
Thu 03:15:27 PM -3.0380 -60.1580 63° Northeast 188 216 2,100 -436 Level FlightAware ADS-B
Thu 03:15:57 PM -3.0380 -60.1320 90° East 174 200 1,700 -800 Descending FlightAware ADS-B
Thu 03:16:12 PM -3.0380 -60.1210 90° East 162 186 1,500 -800 Descending FlightAware ADS-B
Thu 03:16:27 PM -3.0390 -60.1100 95° East 154 177 1,300 -764 Descending FlightAware ADS-B
Thu 03:17:07 PM -3.0390 -60.0820 90° East 143 165 800 -667 Descending FlightAware ADS-B
Thu 03:17:12 PM -3.0390 -60.0790 90° East 144 166 800 -300 Level FlightAware ADS-B
Thu 03:17:47 PM -3.0390 -60.0570 90° East 143 165 600 -343 Descending FlightAware ADS-B

Login

Don't have an account? Register now (free) for customized features, flight alerts, and more!